sensor_id;sensor_type;location;lat;lon;timestamp;P1;durP1;ratioP1;P2;durP2;ratioP2
13816;SDS011;6979;52.116;5.286;2024-01-27T00:00:33;6.30;;;3.50;;
13816;SDS011;6979;52.116;5.286;2024-01-27T00:03:03;8.13;;;3.77;;
13816;SDS011;6979;52.116;5.286;2024-01-27T00:05:30;7.10;;;3.63;;
13816;SDS011;6979;52.116;5.286;2024-01-27T00:07:56;6.87;;;4.33;;
13816;SDS011;6979;52.116;5.286;2024-01-27T00:10:23;11.60;;;7.30;;
13816;SDS011;6979;52.116;5.286;2024-01-27T00:12:50;26.20;;;16.17;;
13816;SDS011;6979;52.116;5.286;2024-01-27T00:15:18;14.23;;;7.97;;
13816;SDS011;6979;52.116;5.286;2024-01-27T00:17:45;13.90;;;5.70;;
13816;SDS011;6979;52.116;5.286;2024-01-27T00:20:12;7.00;;;4.53;;
13816;SDS011;6979;52.116;5.286;2024-01-27T00:22:39;10.30;;;5.20;;
13816;SDS011;6979;52.116;5.286;2024-01-27T00:25:06;7.87;;;4.00;;
13816;SDS011;6979;52.116;5.286;2024-01-27T00:27:33;6.80;;;3.73;;
13816;SDS011;6979;52.116;5.286;2024-01-27T00:30:00;7.83;;;3.93;;
13816;SDS011;6979;52.116;5.286;2024-01-27T00:32:28;7.90;;;3.83;;
13816;SDS011;6979;52.116;5.286;2024-01-27T00:34:55;5.80;;;3.60;;
13816;SDS011;6979;52.116;5.286;2024-01-27T00:37:22;5.37;;;3.30;;
13816;SDS011;6979;52.116;5.286;2024-01-27T00:39:49;5.33;;;3.73;;
13816;SDS011;6979;52.116;5.286;2024-01-27T00:42:16;8.90;;;4.27;;
13816;SDS011;6979;52.116;5.286;2024-01-27T00:44:44;7.50;;;4.37;;
13816;SDS011;6979;52.116;5.286;2024-01-27T00:47:10;8.10;;;4.83;;
13816;SDS011;6979;52.116;5.286;2024-01-27T00:49:39;6.40;;;4.30;;
13816;SDS011;6979;52.116;5.286;2024-01-27T00:52:05;6.00;;;4.20;;
13816;SDS011;6979;52.116;5.286;2024-01-27T00:54:32;7.70;;;3.70;;
13816;SDS011;6979;52.116;5.286;2024-01-27T00:56:59;7.97;;;4.53;;
13816;SDS011;6979;52.116;5.286;2024-01-27T00:59:26;8.10;;;4.00;;
13816;SDS011;6979;52.116;5.286;2024-01-27T01:01:53;8.67;;;4.67;;
13816;SDS011;6979;52.116;5.286;2024-01-27T01:04:21;7.90;;;4.10;;
13816;SDS011;6979;52.116;5.286;2024-01-27T01:06:49;6.30;;;3.60;;
13816;SDS011;6979;52.116;5.286;2024-01-27T01:09:17;7.00;;;3.70;;
13816;SDS011;6979;52.116;5.286;2024-01-27T01:11:44;7.57;;;3.47;;
13816;SDS011;6979;52.116;5.286;2024-01-27T01:14:11;6.07;;;3.50;;
13816;SDS011;6979;52.116;5.286;2024-01-27T01:16:39;11.27;;;4.00;;
13816;SDS011;6979;52.116;5.286;2024-01-27T01:19:06;4.40;;;3.23;;
13816;SDS011;6979;52.116;5.286;2024-01-27T01:21:33;10.77;;;4.10;;
13816;SDS011;6979;52.116;5.286;2024-01-27T01:24:02;8.10;;;4.00;;
13816;SDS011;6979;52.116;5.286;2024-01-27T01:26:29;7.60;;;3.53;;
13816;SDS011;6979;52.116;5.286;2024-01-27T01:28:55;8.60;;;3.53;;
13816;SDS011;6979;52.116;5.286;2024-01-27T01:31:22;8.10;;;3.43;;
13816;SDS011;6979;52.116;5.286;2024-01-27T01:33:49;6.27;;;3.63;;
13816;SDS011;6979;52.116;5.286;2024-01-27T01:36:16;6.27;;;3.20;;
13816;SDS011;6979;52.116;5.286;2024-01-27T01:38:43;7.07;;;3.77;;
13816;SDS011;6979;52.116;5.286;2024-01-27T01:41:14;7.13;;;3.50;;
13816;SDS011;6979;52.116;5.286;2024-01-27T01:43:41;7.93;;;3.60;;
13816;SDS011;6979;52.116;5.286;2024-01-27T01:46:10;6.00;;;3.40;;
13816;SDS011;6979;52.116;5.286;2024-01-27T01:48:37;10.60;;;3.03;;
13816;SDS011;6979;52.116;5.286;2024-01-27T01:51:05;6.13;;;3.47;;
13816;SDS011;6979;52.116;5.286;2024-01-27T01:53:32;7.13;;;3.50;;
13816;SDS011;6979;52.116;5.286;2024-01-27T01:55:59;9.60;;;4.33;;
13816;SDS011;6979;52.116;5.286;2024-01-27T01:58:30;5.57;;;3.17;;
13816;SDS011;6979;52.116;5.286;2024-01-27T02:00:59;4.73;;;3.27;;
13816;SDS011;6979;52.116;5.286;2024-01-27T02:03:26;8.43;;;3.30;;
13816;SDS011;6979;52.116;5.286;2024-01-27T02:05:53;7.93;;;3.70;;
13816;SDS011;6979;52.116;5.286;2024-01-27T02:08:20;9.53;;;3.83;;
13816;SDS011;6979;52.116;5.286;2024-01-27T02:10:47;8.17;;;3.53;;
13816;SDS011;6979;52.116;5.286;2024-01-27T02:13:17;6.13;;;3.40;;
13816;SDS011;6979;52.116;5.286;2024-01-27T02:15:46;8.57;;;3.43;;
13816;SDS011;6979;52.116;5.286;2024-01-27T02:18:13;8.57;;;3.10;;
13816;SDS011;6979;52.116;5.286;2024-01-27T02:20:41;8.57;;;3.50;;
13816;SDS011;6979;52.116;5.286;2024-01-27T02:23:08;7.97;;;2.93;;
13816;SDS011;6979;52.116;5.286;2024-01-27T02:25:36;7.87;;;3.47;;
13816;SDS011;6979;52.116;5.286;2024-01-27T02:28:04;5.40;;;3.53;;
13816;SDS011;6979;52.116;5.286;2024-01-27T02:30:31;9.83;;;3.17;;
13816;SDS011;6979;52.116;5.286;2024-01-27T02:32:58;3.77;;;2.40;;
13816;SDS011;6979;52.116;5.286;2024-01-27T02:35:25;7.03;;;2.87;;
13816;SDS011;6979;52.116;5.286;2024-01-27T02:37:52;5.80;;;2.93;;
13816;SDS011;6979;52.116;5.286;2024-01-27T02:40:19;6.80;;;3.00;;
13816;SDS011;6979;52.116;5.286;2024-01-27T02:42:47;8.53;;;3.77;;
13816;SDS011;6979;52.116;5.286;2024-01-27T02:45:14;4.07;;;2.50;;
13816;SDS011;6979;52.116;5.286;2024-01-27T02:47:41;5.07;;;3.17;;
13816;SDS011;6979;52.116;5.286;2024-01-27T02:50:08;5.47;;;2.93;;
13816;SDS011;6979;52.116;5.286;2024-01-27T02:52:35;5.57;;;2.57;;
13816;SDS011;6979;52.116;5.286;2024-01-27T02:55:03;4.73;;;2.57;;
13816;SDS011;6979;52.116;5.286;2024-01-27T02:57:30;6.63;;;3.13;;
13816;SDS011;6979;52.116;5.286;2024-01-27T02:59:58;9.17;;;3.10;;
13816;SDS011;6979;52.116;5.286;2024-01-27T03:02:25;3.87;;;3.40;;
13816;SDS011;6979;52.116;5.286;2024-01-27T03:04:52;5.17;;;3.20;;
13816;SDS011;6979;52.116;5.286;2024-01-27T03:07:19;4.83;;;2.73;;
13816;SDS011;6979;52.116;5.286;2024-01-27T03:09:45;4.53;;;3.07;;
13816;SDS011;6979;52.116;5.286;2024-01-27T03:12:12;5.83;;;2.87;;
13816;SDS011;6979;52.116;5.286;2024-01-27T03:14:40;8.90;;;3.30;;
13816;SDS011;6979;52.116;5.286;2024-01-27T03:17:09;4.10;;;2.70;;
13816;SDS011;6979;52.116;5.286;2024-01-27T03:19:35;5.70;;;2.80;;
13816;SDS011;6979;52.116;5.286;2024-01-27T03:22:02;5.80;;;3.10;;
13816;SDS011;6979;52.116;5.286;2024-01-27T03:24:29;5.60;;;3.30;;
13816;SDS011;6979;52.116;5.286;2024-01-27T03:26:56;6.07;;;3.43;;
13816;SDS011;6979;52.116;5.286;2024-01-27T03:29:26;6.43;;;3.03;;
13816;SDS011;6979;52.116;5.286;2024-01-27T03:31:53;6.10;;;3.10;;
13816;SDS011;6979;52.116;5.286;2024-01-27T03:34:21;6.77;;;2.70;;
13816;SDS011;6979;52.116;5.286;2024-01-27T03:36:50;6.43;;;3.27;;
13816;SDS011;6979;52.116;5.286;2024-01-27T03:39:17;7.67;;;3.50;;
13816;SDS011;6979;52.116;5.286;2024-01-27T03:41:43;6.67;;;3.63;;
13816;SDS011;6979;52.116;5.286;2024-01-27T03:44:10;7.43;;;3.10;;
13816;SDS011;6979;52.116;5.286;2024-01-27T03:46:37;6.47;;;3.17;;
13816;SDS011;6979;52.116;5.286;2024-01-27T03:49:05;5.40;;;2.97;;
13816;SDS011;6979;52.116;5.286;2024-01-27T03:51:33;6.67;;;3.07;;
13816;SDS011;6979;52.116;5.286;2024-01-27T03:54:03;5.70;;;3.07;;
13816;SDS011;6979;52.116;5.286;2024-01-27T03:56:30;5.33;;;3.20;;
13816;SDS011;6979;52.116;5.286;2024-01-27T03:58:56;6.47;;;2.93;;
13816;SDS011;6979;52.116;5.286;2024-01-27T04:01:23;3.83;;;2.60;;
13816;SDS011;6979;52.116;5.286;2024-01-27T04:03:50;6.30;;;3.33;;
13816;SDS011;6979;52.116;5.286;2024-01-27T04:06:17;6.90;;;3.00;;
13816;SDS011;6979;52.116;5.286;2024-01-27T04:08:47;5.23;;;3.17;;
13816;SDS011;6979;52.116;5.286;2024-01-27T04:11:20;8.53;;;3.67;;
13816;SDS011;6979;52.116;5.286;2024-01-27T04:13:48;6.37;;;3.53;;
13816;SDS011;6979;52.116;5.286;2024-01-27T04:16:15;7.63;;;3.77;;
13816;SDS011;6979;52.116;5.286;2024-01-27T04:18:42;8.83;;;3.73;;
13816;SDS011;6979;52.116;5.286;2024-01-27T04:21:09;6.17;;;3.77;;
13816;SDS011;6979;52.116;5.286;2024-01-27T04:23:38;7.47;;;4.00;;
13816;SDS011;6979;52.116;5.286;2024-01-27T04:26:07;5.90;;;3.57;;
13816;SDS011;6979;52.116;5.286;2024-01-27T04:28:34;9.53;;;4.43;;
13816;SDS011;6979;52.116;5.286;2024-01-27T04:31:11;7.20;;;3.77;;
13816;SDS011;6979;52.116;5.286;2024-01-27T04:33:38;7.23;;;3.60;;
13816;SDS011;6979;52.116;5.286;2024-01-27T04:36:05;5.77;;;3.67;;
13816;SDS011;6979;52.116;5.286;2024-01-27T04:38:34;5.97;;;4.27;;
13816;SDS011;6979;52.116;5.286;2024-01-27T04:41:04;5.83;;;3.60;;
13816;SDS011;6979;52.116;5.286;2024-01-27T04:43:34;6.53;;;4.00;;
13816;SDS011;6979;52.116;5.286;2024-01-27T04:46:01;5.10;;;3.60;;
13816;SDS011;6979;52.116;5.286;2024-01-27T04:48:29;7.20;;;3.70;;
13816;SDS011;6979;52.116;5.286;2024-01-27T04:50:55;5.93;;;3.67;;
13816;SDS011;6979;52.116;5.286;2024-01-27T04:53:22;5.03;;;3.93;;
13816;SDS011;6979;52.116;5.286;2024-01-27T04:55:51;8.67;;;3.93;;
13816;SDS011;6979;52.116;5.286;2024-01-27T04:58:18;8.40;;;4.07;;
13816;SDS011;6979;52.116;5.286;2024-01-27T05:00:46;5.67;;;4.00;;
13816;SDS011;6979;52.116;5.286;2024-01-27T05:03:13;7.27;;;3.60;;
13816;SDS011;6979;52.116;5.286;2024-01-27T05:05:41;6.07;;;3.87;;
13816;SDS011;6979;52.116;5.286;2024-01-27T05:08:07;5.90;;;4.00;;
13816;SDS011;6979;52.116;5.286;2024-01-27T05:10:35;7.53;;;4.57;;
13816;SDS011;6979;52.116;5.286;2024-01-27T05:13:03;7.67;;;4.40;;
13816;SDS011;6979;52.116;5.286;2024-01-27T05:15:30;6.07;;;4.23;;
13816;SDS011;6979;52.116;5.286;2024-01-27T05:17:59;8.87;;;4.30;;
13816;SDS011;6979;52.116;5.286;2024-01-27T05:20:26;4.80;;;3.87;;
13816;SDS011;6979;52.116;5.286;2024-01-27T05:22:53;9.03;;;4.40;;
13816;SDS011;6979;52.116;5.286;2024-01-27T05:25:20;9.27;;;5.60;;
13816;SDS011;6979;52.116;5.286;2024-01-27T05:27:47;8.10;;;5.10;;
13816;SDS011;6979;52.116;5.286;2024-01-27T05:30:15;8.13;;;4.93;;
13816;SDS011;6979;52.116;5.286;2024-01-27T05:32:42;5.93;;;4.37;;
13816;SDS011;6979;52.116;5.286;2024-01-27T05:35:10;8.53;;;4.97;;
13816;SDS011;6979;52.116;5.286;2024-01-27T05:37:43;10.30;;;5.00;;
13816;SDS011;6979;52.116;5.286;2024-01-27T05:40:11;7.03;;;4.73;;
13816;SDS011;6979;52.116;5.286;2024-01-27T05:42:38;6.80;;;4.90;;
13816;SDS011;6979;52.116;5.286;2024-01-27T05:45:07;7.03;;;5.10;;
13816;SDS011;6979;52.116;5.286;2024-01-27T05:47:36;8.03;;;5.20;;
13816;SDS011;6979;52.116;5.286;2024-01-27T05:50:03;7.67;;;5.53;;
13816;SDS011;6979;52.116;5.286;2024-01-27T05:52:34;8.30;;;5.17;;
13816;SDS011;6979;52.116;5.286;2024-01-27T05:55:01;10.00;;;6.27;;
13816;SDS011;6979;52.116;5.286;2024-01-27T05:57:28;6.50;;;4.50;;
13816;SDS011;6979;52.116;5.286;2024-01-27T05:59:55;6.23;;;4.83;;
13816;SDS011;6979;52.116;5.286;2024-01-27T06:02:22;11.00;;;5.20;;
13816;SDS011;6979;52.116;5.286;2024-01-27T06:04:49;8.30;;;5.20;;
13816;SDS011;6979;52.116;5.286;2024-01-27T06:07:15;6.93;;;4.97;;
13816;SDS011;6979;52.116;5.286;2024-01-27T06:09:44;6.33;;;4.87;;
13816;SDS011;6979;52.116;5.286;2024-01-27T06:12:11;8.30;;;4.90;;
13816;SDS011;6979;52.116;5.286;2024-01-27T06:14:38;7.70;;;5.33;;
13816;SDS011;6979;52.116;5.286;2024-01-27T06:17:05;10.30;;;5.70;;
13816;SDS011;6979;52.116;5.286;2024-01-27T06:19:31;8.80;;;6.30;;
13816;SDS011;6979;52.116;5.286;2024-01-27T06:21:58;6.43;;;5.60;;
13816;SDS011;6979;52.116;5.286;2024-01-27T06:24:26;8.33;;;5.27;;
13816;SDS011;6979;52.116;5.286;2024-01-27T06:26:54;7.83;;;5.57;;
13816;SDS011;6979;52.116;5.286;2024-01-27T06:29:21;11.03;;;5.83;;
13816;SDS011;6979;52.116;5.286;2024-01-27T06:31:48;5.57;;;5.07;;
13816;SDS011;6979;52.116;5.286;2024-01-27T06:34:15;9.87;;;6.13;;
13816;SDS011;6979;52.116;5.286;2024-01-27T06:36:42;8.67;;;5.93;;
13816;SDS011;6979;52.116;5.286;2024-01-27T06:39:09;7.30;;;5.03;;
13816;SDS011;6979;52.116;5.286;2024-01-27T06:41:36;5.57;;;5.03;;
13816;SDS011;6979;52.116;5.286;2024-01-27T06:44:05;8.53;;;5.37;;
13816;SDS011;6979;52.116;5.286;2024-01-27T06:46:32;10.13;;;5.13;;
13816;SDS011;6979;52.116;5.286;2024-01-27T06:48:59;8.63;;;6.40;;
13816;SDS011;6979;52.116;5.286;2024-01-27T06:51:27;5.93;;;5.30;;
13816;SDS011;6979;52.116;5.286;2024-01-27T06:53:53;9.53;;;5.67;;
13816;SDS011;6979;52.116;5.286;2024-01-27T06:56:20;8.03;;;5.80;;
13816;SDS011;6979;52.116;5.286;2024-01-27T06:58:47;7.93;;;5.93;;
13816;SDS011;6979;52.116;5.286;2024-01-27T07:01:15;8.20;;;6.57;;
13816;SDS011;6979;52.116;5.286;2024-01-27T07:03:42;9.37;;;6.80;;
13816;SDS011;6979;52.116;5.286;2024-01-27T07:06:10;8.60;;;5.90;;
13816;SDS011;6979;52.116;5.286;2024-01-27T07:08:36;6.97;;;6.33;;
13816;SDS011;6979;52.116;5.286;2024-01-27T07:11:03;9.37;;;6.07;;
13816;SDS011;6979;52.116;5.286;2024-01-27T07:13:30;10.07;;;6.73;;
13816;SDS011;6979;52.116;5.286;2024-01-27T07:15:57;7.60;;;6.90;;
13816;SDS011;6979;52.116;5.286;2024-01-27T07:18:25;10.20;;;7.03;;
13816;SDS011;6979;52.116;5.286;2024-01-27T07:20:57;7.03;;;6.20;;
13816;SDS011;6979;52.116;5.286;2024-01-27T07:23:27;8.80;;;7.33;;
13816;SDS011;6979;52.116;5.286;2024-01-27T07:25:54;9.77;;;6.73;;
13816;SDS011;6979;52.116;5.286;2024-01-27T07:28:22;8.13;;;7.20;;
13816;SDS011;6979;52.116;5.286;2024-01-27T07:30:49;8.90;;;7.27;;
13816;SDS011;6979;52.116;5.286;2024-01-27T07:33:16;10.03;;;7.27;;
13816;SDS011;6979;52.116;5.286;2024-01-27T07:35:44;10.17;;;7.83;;
13816;SDS011;6979;52.116;5.286;2024-01-27T07:38:11;8.50;;;7.73;;
13816;SDS011;6979;52.116;5.286;2024-01-27T07:40:38;10.47;;;8.30;;
13816;SDS011;6979;52.116;5.286;2024-01-27T07:43:04;8.23;;;7.43;;
13816;SDS011;6979;52.116;5.286;2024-01-27T07:45:31;8.47;;;7.57;;
13816;SDS011;6979;52.116;5.286;2024-01-27T07:47:58;12.13;;;8.37;;
13816;SDS011;6979;52.116;5.286;2024-01-27T07:50:25;11.17;;;8.90;;
13816;SDS011;6979;52.116;5.286;2024-01-27T07:52:53;9.03;;;7.60;;
13816;SDS011;6979;52.116;5.286;2024-01-27T07:55:23;9.73;;;8.43;;
13816;SDS011;6979;52.116;5.286;2024-01-27T07:57:50;10.97;;;8.37;;
13816;SDS011;6979;52.116;5.286;2024-01-27T08:00:17;11.60;;;7.83;;
13816;SDS011;6979;52.116;5.286;2024-01-27T08:02:44;9.53;;;8.37;;
13816;SDS011;6979;52.116;5.286;2024-01-27T08:05:11;11.07;;;8.73;;
13816;SDS011;6979;52.116;5.286;2024-01-27T08:07:38;9.40;;;8.33;;
13816;SDS011;6979;52.116;5.286;2024-01-27T08:10:07;9.53;;;8.50;;
13816;SDS011;6979;52.116;5.286;2024-01-27T08:12:36;9.80;;;8.77;;
13816;SDS011;6979;52.116;5.286;2024-01-27T08:15:03;9.50;;;8.53;;
13816;SDS011;6979;52.116;5.286;2024-01-27T08:17:31;11.13;;;8.60;;
13816;SDS011;6979;52.116;5.286;2024-01-27T08:19:58;10.10;;;7.90;;
13816;SDS011;6979;52.116;5.286;2024-01-27T08:22:30;15.37;;;12.37;;
13816;SDS011;6979;52.116;5.286;2024-01-27T08:24:59;14.07;;;9.93;;
13816;SDS011;6979;52.116;5.286;2024-01-27T08:27:28;16.20;;;8.60;;
13816;SDS011;6979;52.116;5.286;2024-01-27T08:29:59;11.73;;;8.93;;
13816;SDS011;6979;52.116;5.286;2024-01-27T08:32:26;9.20;;;7.77;;
13816;SDS011;6979;52.116;5.286;2024-01-27T08:34:53;10.13;;;8.63;;
13816;SDS011;6979;52.116;5.286;2024-01-27T08:37:20;10.73;;;7.37;;
13816;SDS011;6979;52.116;5.286;2024-01-27T08:39:47;11.20;;;7.93;;
13816;SDS011;6979;52.116;5.286;2024-01-27T08:42:16;10.07;;;8.67;;
13816;SDS011;6979;52.116;5.286;2024-01-27T08:44:44;9.33;;;7.83;;
13816;SDS011;6979;52.116;5.286;2024-01-27T08:47:11;9.90;;;7.87;;
13816;SDS011;6979;52.116;5.286;2024-01-27T08:49:38;14.17;;;8.50;;
13816;SDS011;6979;52.116;5.286;2024-01-27T08:52:06;13.97;;;8.47;;
13816;SDS011;6979;52.116;5.286;2024-01-27T08:54:33;11.70;;;8.13;;
13816;SDS011;6979;52.116;5.286;2024-01-27T08:57:00;10.83;;;8.77;;
13816;SDS011;6979;52.116;5.286;2024-01-27T08:59:27;11.43;;;8.60;;
13816;SDS011;6979;52.116;5.286;2024-01-27T09:01:55;10.70;;;8.53;;
13816;SDS011;6979;52.116;5.286;2024-01-27T09:04:24;11.10;;;8.17;;
13816;SDS011;6979;52.116;5.286;2024-01-27T09:06:51;11.80;;;8.10;;
13816;SDS011;6979;52.116;5.286;2024-01-27T09:09:18;11.07;;;8.30;;
13816;SDS011;6979;52.116;5.286;2024-01-27T09:11:45;13.47;;;8.23;;
13816;SDS011;6979;52.116;5.286;2024-01-27T09:14:17;15.23;;;9.40;;
13816;SDS011;6979;52.116;5.286;2024-01-27T09:16:44;11.93;;;8.87;;
13816;SDS011;6979;52.116;5.286;2024-01-27T09:19:13;12.80;;;9.07;;
13816;SDS011;6979;52.116;5.286;2024-01-27T09:21:40;13.10;;;8.77;;
13816;SDS011;6979;52.116;5.286;2024-01-27T09:24:07;9.47;;;8.53;;
13816;SDS011;6979;52.116;5.286;2024-01-27T09:26:34;11.13;;;9.20;;
13816;SDS011;6979;52.116;5.286;2024-01-27T09:29:01;9.53;;;8.20;;
13816;SDS011;6979;52.116;5.286;2024-01-27T09:31:38;12.80;;;9.17;;
13816;SDS011;6979;52.116;5.286;2024-01-27T09:34:04;9.67;;;7.97;;
13816;SDS011;6979;52.116;5.286;2024-01-27T09:36:35;10.33;;;8.40;;
13816;SDS011;6979;52.116;5.286;2024-01-27T09:39:09;13.97;;;9.77;;
13816;SDS011;6979;52.116;5.286;2024-01-27T09:41:35;14.67;;;10.83;;
13816;SDS011;6979;52.116;5.286;2024-01-27T09:44:03;14.33;;;9.57;;
13816;SDS011;6979;52.116;5.286;2024-01-27T09:46:31;10.77;;;8.83;;
13816;SDS011;6979;52.116;5.286;2024-01-27T09:48:58;11.60;;;8.73;;
13816;SDS011;6979;52.116;5.286;2024-01-27T09:51:29;12.60;;;9.40;;
13816;SDS011;6979;52.116;5.286;2024-01-27T09:53:57;17.17;;;8.97;;
13816;SDS011;6979;52.116;5.286;2024-01-27T09:56:24;12.63;;;9.30;;
13816;SDS011;6979;52.116;5.286;2024-01-27T09:58:54;12.20;;;7.53;;
13816;SDS011;6979;52.116;5.286;2024-01-27T10:01:22;10.77;;;8.50;;
13816;SDS011;6979;52.116;5.286;2024-01-27T10:03:54;9.10;;;7.80;;
13816;SDS011;6979;52.116;5.286;2024-01-27T10:06:21;11.77;;;8.17;;
13816;SDS011;6979;52.116;5.286;2024-01-27T10:08:51;12.13;;;8.37;;
13816;SDS011;6979;52.116;5.286;2024-01-27T10:11:21;13.07;;;8.17;;
13816;SDS011;6979;52.116;5.286;2024-01-27T10:13:56;10.73;;;8.47;;
13816;SDS011;6979;52.116;5.286;2024-01-27T10:16:25;12.57;;;7.87;;
13816;SDS011;6979;52.116;5.286;2024-01-27T10:18:59;8.47;;;7.57;;
13816;SDS011;6979;52.116;5.286;2024-01-27T10:21:26;8.77;;;8.07;;
13816;SDS011;6979;52.116;5.286;2024-01-27T10:23:53;9.53;;;7.13;;
13816;SDS011;6979;52.116;5.286;2024-01-27T10:26:21;10.30;;;7.40;;
13816;SDS011;6979;52.116;5.286;2024-01-27T10:28:52;8.80;;;7.57;;
13816;SDS011;6979;52.116;5.286;2024-01-27T10:31:19;8.73;;;7.23;;
13816;SDS011;6979;52.116;5.286;2024-01-27T10:33:54;12.70;;;7.50;;
13816;SDS011;6979;52.116;5.286;2024-01-27T10:36:22;12.50;;;7.53;;
13816;SDS011;6979;52.116;5.286;2024-01-27T10:38:49;12.00;;;8.13;;
13816;SDS011;6979;52.116;5.286;2024-01-27T10:41:18;7.57;;;6.83;;
13816;SDS011;6979;52.116;5.286;2024-01-27T10:43:51;10.27;;;7.07;;
13816;SDS011;6979;52.116;5.286;2024-01-27T10:46:20;9.77;;;7.30;;
13816;SDS011;6979;52.116;5.286;2024-01-27T10:48:49;10.20;;;6.77;;
13816;SDS011;6979;52.116;5.286;2024-01-27T10:51:18;12.07;;;7.90;;
13816;SDS011;6979;52.116;5.286;2024-01-27T10:53:54;10.20;;;7.00;;
13816;SDS011;6979;52.116;5.286;2024-01-27T10:56:33;9.33;;;7.30;;
13816;SDS011;6979;52.116;5.286;2024-01-27T10:59:00;11.60;;;7.20;;
13816;SDS011;6979;52.116;5.286;2024-01-27T11:01:30;8.50;;;7.63;;
13816;SDS011;6979;52.116;5.286;2024-01-27T11:04:00;6.57;;;5.73;;
13816;SDS011;6979;52.116;5.286;2024-01-27T11:06:31;8.67;;;7.40;;
13816;SDS011;6979;52.116;5.286;2024-01-27T11:09:00;8.60;;;6.30;;
13816;SDS011;6979;52.116;5.286;2024-01-27T11:11:30;9.67;;;7.50;;
13816;SDS011;6979;52.116;5.286;2024-01-27T11:13:58;8.57;;;6.53;;
13816;SDS011;6979;52.116;5.286;2024-01-27T11:16:26;10.73;;;7.60;;
13816;SDS011;6979;52.116;5.286;2024-01-27T11:18:53;10.90;;;7.47;;
13816;SDS011;6979;52.116;5.286;2024-01-27T11:21:21;8.77;;;7.57;;
13816;SDS011;6979;52.116;5.286;2024-01-27T11:23:50;10.53;;;7.83;;
13816;SDS011;6979;52.116;5.286;2024-01-27T11:26:17;12.73;;;7.93;;
13816;SDS011;6979;52.116;5.286;2024-01-27T11:28:47;12.40;;;7.53;;
13816;SDS011;6979;52.116;5.286;2024-01-27T11:31:18;12.10;;;7.23;;
13816;SDS011;6979;52.116;5.286;2024-01-27T11:33:47;9.97;;;7.40;;
13816;SDS011;6979;52.116;5.286;2024-01-27T11:36:18;11.67;;;7.30;;
13816;SDS011;6979;52.116;5.286;2024-01-27T11:38:48;9.40;;;7.30;;
13816;SDS011;6979;52.116;5.286;2024-01-27T11:41:27;9.97;;;6.57;;
13816;SDS011;6979;52.116;5.286;2024-01-27T11:43:57;12.57;;;6.93;;
13816;SDS011;6979;52.116;5.286;2024-01-27T11:46:27;13.13;;;7.07;;
13816;SDS011;6979;52.116;5.286;2024-01-27T11:48:54;9.30;;;6.70;;
13816;SDS011;6979;52.116;5.286;2024-01-27T11:51:25;8.53;;;7.07;;
13816;SDS011;6979;52.116;5.286;2024-01-27T11:53:52;10.17;;;6.20;;
13816;SDS011;6979;52.116;5.286;2024-01-27T11:56:18;12.10;;;6.87;;
13816;SDS011;6979;52.116;5.286;2024-01-27T11:58:46;13.37;;;7.57;;
13816;SDS011;6979;52.116;5.286;2024-01-27T12:01:14;13.03;;;6.90;;
13816;SDS011;6979;52.116;5.286;2024-01-27T12:03:42;10.10;;;5.83;;
13816;SDS011;6979;52.116;5.286;2024-01-27T12:06:10;9.03;;;6.50;;
13816;SDS011;6979;52.116;5.286;2024-01-27T12:08:37;9.10;;;6.73;;
13816;SDS011;6979;52.116;5.286;2024-01-27T12:11:05;12.70;;;7.00;;
13816;SDS011;6979;52.116;5.286;2024-01-27T12:13:35;10.13;;;6.10;;
13816;SDS011;6979;52.116;5.286;2024-01-27T12:16:02;7.83;;;5.50;;
13816;SDS011;6979;52.116;5.286;2024-01-27T12:18:29;14.40;;;6.80;;
13816;SDS011;6979;52.116;5.286;2024-01-27T12:20:57;10.77;;;5.67;;
13816;SDS011;6979;52.116;5.286;2024-01-27T12:23:25;9.73;;;5.47;;
13816;SDS011;6979;52.116;5.286;2024-01-27T12:25:55;10.97;;;5.23;;
13816;SDS011;6979;52.116;5.286;2024-01-27T12:28:22;10.00;;;6.07;;
13816;SDS011;6979;52.116;5.286;2024-01-27T12:30:52;8.30;;;5.83;;
13816;SDS011;6979;52.116;5.286;2024-01-27T12:33:25;8.80;;;6.03;;
13816;SDS011;6979;52.116;5.286;2024-01-27T12:35:53;9.83;;;6.20;;
13816;SDS011;6979;52.116;5.286;2024-01-27T12:38:21;10.13;;;6.50;;
13816;SDS011;6979;52.116;5.286;2024-01-27T12:40:48;9.87;;;6.70;;
13816;SDS011;6979;52.116;5.286;2024-01-27T12:43:15;9.83;;;5.93;;
13816;SDS011;6979;52.116;5.286;2024-01-27T12:45:42;12.37;;;6.80;;
13816;SDS011;6979;52.116;5.286;2024-01-27T12:48:09;11.80;;;8.07;;
13816;SDS011;6979;52.116;5.286;2024-01-27T12:50:36;7.07;;;5.23;;
13816;SDS011;6979;52.116;5.286;2024-01-27T12:53:03;10.70;;;5.63;;
13816;SDS011;6979;52.116;5.286;2024-01-27T12:55:31;8.63;;;5.77;;
13816;SDS011;6979;52.116;5.286;2024-01-27T12:57:58;11.93;;;5.90;;
13816;SDS011;6979;52.116;5.286;2024-01-27T13:00:25;13.67;;;5.47;;
13816;SDS011;6979;52.116;5.286;2024-01-27T13:02:52;10.53;;;5.13;;
13816;SDS011;6979;52.116;5.286;2024-01-27T13:05:19;9.20;;;5.70;;
13816;SDS011;6979;52.116;5.286;2024-01-27T13:07:46;11.13;;;5.80;;
13816;SDS011;6979;52.116;5.286;2024-01-27T13:10:13;10.87;;;6.07;;
13816;SDS011;6979;52.116;5.286;2024-01-27T13:12:42;9.17;;;4.83;;
13816;SDS011;6979;52.116;5.286;2024-01-27T13:15:10;8.50;;;5.23;;
13816;SDS011;6979;52.116;5.286;2024-01-27T13:17:36;7.97;;;4.60;;
13816;SDS011;6979;52.116;5.286;2024-01-27T13:20:06;7.77;;;4.73;;
13816;SDS011;6979;52.116;5.286;2024-01-27T13:22:34;6.73;;;5.00;;
13816;SDS011;6979;52.116;5.286;2024-01-27T13:25:01;10.17;;;5.20;;
13816;SDS011;6979;52.116;5.286;2024-01-27T13:27:30;10.43;;;5.47;;
13816;SDS011;6979;52.116;5.286;2024-01-27T13:30:00;8.90;;;4.63;;
13816;SDS011;6979;52.116;5.286;2024-01-27T13:32:27;10.83;;;5.00;;
13816;SDS011;6979;52.116;5.286;2024-01-27T13:34:54;11.43;;;4.97;;
13816;SDS011;6979;52.116;5.286;2024-01-27T13:37:21;9.97;;;4.70;;
13816;SDS011;6979;52.116;5.286;2024-01-27T13:39:48;9.13;;;4.77;;
13816;SDS011;6979;52.116;5.286;2024-01-27T13:42:14;8.77;;;4.97;;
13816;SDS011;6979;52.116;5.286;2024-01-27T13:44:41;7.40;;;5.07;;
13816;SDS011;6979;52.116;5.286;2024-01-27T13:47:09;6.57;;;4.63;;
13816;SDS011;6979;52.116;5.286;2024-01-27T13:49:39;8.27;;;4.90;;
13816;SDS011;6979;52.116;5.286;2024-01-27T13:52:06;13.03;;;5.70;;
13816;SDS011;6979;52.116;5.286;2024-01-27T13:54:33;10.67;;;4.70;;
13816;SDS011;6979;52.116;5.286;2024-01-27T13:57:00;9.33;;;5.20;;
13816;SDS011;6979;52.116;5.286;2024-01-27T13:59:27;10.90;;;5.13;;
13816;SDS011;6979;52.116;5.286;2024-01-27T14:01:56;8.40;;;5.63;;
13816;SDS011;6979;52.116;5.286;2024-01-27T14:04:24;7.67;;;5.30;;
13816;SDS011;6979;52.116;5.286;2024-01-27T14:06:51;10.53;;;6.20;;
13816;SDS011;6979;52.116;5.286;2024-01-27T14:09:18;10.10;;;6.70;;
13816;SDS011;6979;52.116;5.286;2024-01-27T14:11:48;10.43;;;6.30;;
13816;SDS011;6979;52.116;5.286;2024-01-27T14:14:17;11.27;;;6.03;;
13816;SDS011;6979;52.116;5.286;2024-01-27T14:16:44;12.93;;;7.00;;
13816;SDS011;6979;52.116;5.286;2024-01-27T14:19:12;9.17;;;6.20;;
13816;SDS011;6979;52.116;5.286;2024-01-27T14:21:41;9.77;;;6.37;;
13816;SDS011;6979;52.116;5.286;2024-01-27T14:24:11;9.63;;;5.83;;
13816;SDS011;6979;52.116;5.286;2024-01-27T14:26:38;11.20;;;6.03;;
13816;SDS011;6979;52.116;5.286;2024-01-27T14:29:04;8.67;;;5.60;;
13816;SDS011;6979;52.116;5.286;2024-01-27T14:31:31;11.83;;;7.13;;
13816;SDS011;6979;52.116;5.286;2024-01-27T14:34:01;11.73;;;5.67;;
13816;SDS011;6979;52.116;5.286;2024-01-27T14:36:28;8.67;;;5.23;;
13816;SDS011;6979;52.116;5.286;2024-01-27T14:38:59;11.53;;;6.80;;
13816;SDS011;6979;52.116;5.286;2024-01-27T14:41:35;7.80;;;5.37;;
13816;SDS011;6979;52.116;5.286;2024-01-27T14:44:03;10.43;;;6.20;;
13816;SDS011;6979;52.116;5.286;2024-01-27T14:46:30;13.67;;;6.03;;
13816;SDS011;6979;52.116;5.286;2024-01-27T14:48:56;9.43;;;5.93;;
13816;SDS011;6979;52.116;5.286;2024-01-27T14:51:23;9.77;;;4.87;;
13816;SDS011;6979;52.116;5.286;2024-01-27T14:53:50;11.70;;;5.73;;
13816;SDS011;6979;52.116;5.286;2024-01-27T14:56:18;16.47;;;12.00;;
13816;SDS011;6979;52.116;5.286;2024-01-27T14:58:45;13.37;;;6.67;;